createdAt,value
2017-09-30T03:31:24.336Z,25.33
2017-09-30T03:33:51.941Z,27.30
2017-09-30T03:36:19.981Z,29.47
2017-09-30T03:38:48.357Z,25.13
2017-09-30T03:41:15.953Z,28.47
2017-09-30T03:43:43.576Z,27.10
2017-09-30T03:46:11.248Z,26.60
2017-09-30T03:48:40.015Z,25.93
2017-09-30T03:51:07.613Z,27.80
2017-09-30T03:53:35.216Z,24.60
2017-09-30T03:56:02.825Z,25.57
2017-09-30T03:58:31.191Z,28.10
2017-09-30T04:00:59.969Z,21.03
2017-09-30T04:03:27.642Z,24.20
2017-09-30T04:05:56.014Z,20.63
2017-09-30T04:08:24.416Z,28.90
2017-09-30T04:10:52.790Z,23.53
2017-09-30T04:13:21.521Z,21.37
2017-09-30T04:15:49.132Z,21.00
2017-09-30T04:18:17.506Z,25.70
2017-09-30T04:20:45.893Z,22.00
2017-09-30T04:23:14.260Z,25.23
2017-09-30T04:25:43.020Z,23.30
2017-09-30T04:28:10.632Z,23.33
2017-09-30T04:30:38.250Z,18.90
2017-09-30T04:33:05.873Z,22.93
2017-09-30T04:35:33.483Z,19.70
2017-09-30T04:38:01.568Z,21.47
2017-09-30T04:40:29.967Z,25.73
2017-09-30T04:42:57.559Z,23.83
2017-09-30T04:45:25.218Z,22.50
2017-09-30T04:47:52.992Z,22.50
2017-09-30T04:50:20.973Z,24.33
2017-09-30T04:52:48.600Z,22.83
2017-09-30T04:55:16.201Z,22.90
2017-09-30T04:57:43.825Z,21.80
2017-09-30T05:00:12.038Z,22.47
2017-09-30T05:02:40.004Z,24.70
2017-09-30T05:05:07.634Z,22.53
2017-09-30T05:07:35.232Z,25.60
2017-09-30T05:10:02.847Z,23.33
2017-09-30T05:12:30.453Z,23.27
2017-09-30T05:14:58.408Z,22.03
2017-09-30T05:17:26.004Z,27.47
2017-09-30T05:19:54.389Z,22.70
2017-09-30T05:22:22.004Z,28.90
2017-09-30T05:24:49.656Z,22.30
2017-09-30T05:27:17.653Z,18.83
2017-09-30T05:29:45.292Z,21.23
2017-09-30T05:32:12.907Z,24.40
2017-09-30T05:34:41.307Z,22.03
2017-09-30T05:37:08.921Z,21.00
2017-09-30T05:39:36.564Z,18.90
2017-09-30T05:42:04.551Z,19.70
2017-09-30T05:44:32.152Z,20.43
2017-09-30T05:46:59.753Z,21.17
2017-09-30T05:49:27.726Z,22.37
2017-09-30T05:51:55.337Z,24.47
2017-09-30T05:54:23.700Z,20.90
2017-09-30T05:56:52.551Z,23.70
2017-09-30T05:59:20.169Z,27.23
2017-09-30T06:01:47.774Z,23.50
2017-09-30T06:04:15.491Z,22.73
2017-09-30T06:06:43.094Z,23.40
2017-09-30T06:09:11.896Z,22.80
2017-09-30T06:11:39.496Z,21.47
2017-09-30T06:14:07.098Z,25.60
2017-09-30T06:16:35.085Z,27.40
2017-09-30T06:19:02.687Z,23.53
2017-09-30T06:21:30.436Z,18.93
2017-09-30T06:23:58.882Z,22.43
2017-09-30T06:26:26.557Z,26.90
2017-09-30T06:28:54.523Z,25.93
2017-09-30T06:31:22.137Z,22.93
2017-09-30T06:33:49.751Z,22.97
2017-09-30T06:36:17.712Z,22.70
2017-09-30T06:38:45.316Z,23.53
2017-09-30T06:41:12.912Z,20.67
2017-09-30T06:43:40.538Z,21.00
2017-09-30T06:46:08.141Z,22.73
2017-09-30T06:48:35.744Z,23.63
2017-09-30T06:51:04.500Z,26.33
2017-09-30T06:53:32.126Z,23.40
2017-09-30T06:55:59.734Z,22.87
2017-09-30T06:58:28.148Z,21.33
2017-09-30T07:00:55.764Z,20.50
2017-09-30T07:03:23.868Z,25.43
2017-09-30T07:05:51.479Z,19.90
2017-09-30T07:08:19.116Z,20.57
2017-09-30T07:10:46.728Z,21.73
2017-09-30T07:13:14.338Z,21.00
2017-09-30T07:15:42.313Z,21.03
2017-09-30T07:18:09.924Z,22.97
2017-09-30T07:20:38.309Z,26.30
2017-09-30T07:23:07.177Z,19.47
2017-09-30T07:25:34.844Z,20.63
2017-09-30T07:28:02.462Z,21.50
2017-09-30T07:30:30.432Z,19.30
2017-09-30T07:32:58.037Z,23.50
2017-09-30T07:35:25.636Z,23.63
2017-09-30T07:37:53.262Z,18.40
2017-09-30T07:40:21.637Z,20.53
2017-09-30T07:42:50.057Z,25.80
2017-09-30T07:45:17.703Z,22.13
2017-09-30T07:47:45.304Z,18.80
2017-09-30T07:50:12.932Z,19.67
2017-09-30T07:52:40.529Z,20.57
2017-09-30T07:55:08.211Z,24.13
2017-09-30T07:57:35.820Z,24.53
2017-09-30T08:00:03.764Z,18.10
2017-09-30T08:02:32.183Z,24.10
2017-09-30T08:04:59.789Z,24.43
2017-09-30T08:07:27.429Z,19.50
2017-09-30T08:09:55.051Z,18.23
2017-09-30T08:12:22.655Z,20.00
2017-09-30T08:14:50.281Z,21.53
2017-09-30T08:17:17.885Z,21.90
2017-09-30T08:19:45.526Z,22.50
2017-09-30T08:22:13.146Z,20.90
2017-09-30T08:24:40.744Z,20.70
2017-09-30T08:27:08.405Z,22.40
2017-09-30T08:29:36.053Z,17.53
2017-09-30T08:32:03.698Z,22.60
2017-09-30T08:34:31.626Z,24.80
2017-09-30T08:36:59.210Z,21.20
2017-09-30T08:39:27.677Z,18.20
2017-09-30T08:41:56.085Z,19.57
2017-09-30T08:44:23.710Z,16.50
2017-09-30T08:46:51.365Z,18.20
2017-09-30T08:49:18.980Z,16.60
2017-09-30T08:51:46.596Z,15.40
2017-09-30T08:54:14.226Z,20.43
2017-09-30T08:56:41.821Z,18.60
2017-09-30T08:59:10.581Z,19.47
2017-09-30T09:01:38.211Z,17.23
2017-09-30T09:04:05.855Z,18.87
2017-09-30T09:06:33.481Z,15.10
2017-09-30T09:09:01.086Z,17.00
2017-09-30T09:11:29.015Z,16.60
2017-09-30T09:13:56.627Z,18.33
2017-09-30T09:16:25.910Z,15.10
2017-09-30T09:18:53.664Z,15.60
2017-09-30T09:21:22.038Z,15.70
2017-09-30T09:23:50.427Z,18.30
2017-09-30T09:26:18.065Z,17.73
2017-09-30T09:28:45.658Z,16.20
2017-09-30T09:31:13.567Z,15.07
2017-09-30T09:33:43.353Z,16.97
2017-09-30T09:36:10.963Z,15.80
2017-09-30T09:38:38.561Z,14.93
2017-09-30T09:41:06.271Z,15.00
2017-09-30T09:43:33.881Z,18.13
2017-09-30T09:46:01.490Z,14.53
2017-09-30T09:48:29.128Z,17.60
2017-09-30T09:50:56.736Z,16.53
2017-09-30T09:53:25.097Z,15.63
2017-09-30T09:55:52.708Z,14.60
2017-09-30T09:58:20.329Z,16.33
2017-09-30T10:00:48.264Z,14.43
2017-09-30T10:03:15.877Z,21.90
2017-09-30T10:05:43.710Z,15.03
2017-09-30T10:08:11.433Z,15.30
2017-09-30T10:10:39.058Z,14.40
2017-09-30T10:13:07.469Z,13.87
2017-09-30T10:15:35.120Z,15.63
2017-09-30T10:18:02.721Z,14.47
2017-09-30T10:20:30.350Z,13.03
2017-09-30T10:22:57.953Z,17.80
2017-09-30T10:25:25.637Z,14.50
2017-09-30T10:27:54.014Z,14.00
2017-09-30T10:30:22.405Z,12.73
2017-09-30T10:32:51.011Z,12.40
2017-09-30T10:35:18.624Z,12.63
2017-09-30T10:37:47.255Z,15.43
2017-09-30T10:40:14.857Z,14.47
2017-09-30T10:42:42.468Z,14.47
2017-09-30T10:45:10.165Z,13.47
2017-09-30T10:47:37.767Z,13.33
2017-09-30T10:50:06.181Z,14.20
2017-09-30T10:52:34.022Z,12.13
2017-09-30T10:55:01.678Z,18.60
2017-09-30T10:57:30.074Z,15.37
2017-09-30T10:59:58.451Z,13.07
2017-09-30T11:02:26.860Z,13.73
2017-09-30T11:04:54.476Z,14.53
2017-09-30T11:07:22.845Z,15.27
2017-09-30T11:09:50.501Z,12.80
2017-09-30T11:12:18.103Z,14.33
2017-09-30T11:14:45.784Z,13.73
2017-09-30T11:17:13.417Z,13.73
2017-09-30T11:19:41.017Z,16.13
2017-09-30T11:22:08.674Z,15.43
2017-09-30T11:24:36.335Z,14.87
2017-09-30T11:27:03.954Z,14.20
2017-09-30T11:29:32.370Z,15.73
2017-09-30T11:31:59.975Z,13.50
2017-09-30T11:34:27.573Z,12.63
2017-09-30T11:36:55.224Z,14.33
2017-09-30T11:39:22.837Z,14.67
2017-09-30T11:41:50.445Z,16.30
2017-09-30T11:44:19.052Z,14.30
2017-09-30T11:46:46.654Z,14.70
2017-09-30T11:49:14.253Z,12.67
2017-09-30T11:51:41.875Z,11.37
2017-09-30T11:54:10.254Z,10.63
2017-09-30T11:56:37.905Z,11.00
2017-09-30T11:59:05.509Z,11.40
2017-09-30T12:01:33.123Z,10.53
2017-09-30T12:04:00.764Z,9.53
2017-09-30T12:06:28.368Z,9.73
2017-09-30T12:08:55.977Z,14.70
2017-09-30T12:11:23.624Z,12.80
2017-09-30T12:13:51.238Z,8.87
2017-09-30T12:16:18.839Z,7.70
2017-09-30T12:18:46.489Z,8.10
2017-09-30T12:21:14.858Z,8.40
2017-09-30T12:23:43.232Z,7.77
2017-09-30T12:26:11.637Z,9.03
2017-09-30T12:28:39.238Z,10.40
2017-09-30T12:31:06.848Z,8.33
2017-09-30T12:33:35.237Z,8.50
2017-09-30T12:36:02.842Z,10.80
2017-09-30T12:38:30.487Z,8.10
2017-09-30T12:40:58.084Z,9.60
2017-09-30T12:43:25.744Z,14.23
2017-09-30T12:45:53.361Z,8.40
2017-09-30T12:48:20.972Z,8.53
2017-09-30T12:50:48.708Z,8.50
2017-09-30T12:53:16.319Z,8.60
2017-09-30T12:55:44.677Z,9.77
2017-09-30T12:58:13.081Z,12.17
2017-09-30T13:00:40.686Z,9.17
2017-09-30T13:03:08.324Z,9.50
2017-09-30T13:05:35.929Z,8.60
2017-09-30T13:08:03.524Z,10.07
2017-09-30T13:10:31.921Z,9.87
2017-09-30T13:12:59.588Z,8.80
2017-09-30T13:15:27.956Z,9.07
2017-09-30T13:17:56.430Z,10.33
2017-09-30T13:20:24.110Z,8.43
2017-09-30T13:22:51.776Z,10.00
2017-09-30T13:25:19.405Z,10.77
2017-09-30T13:27:47.818Z,11.37
2017-09-30T13:30:15.436Z,10.23
2017-09-30T13:32:43.047Z,9.33
2017-09-30T13:35:10.662Z,9.60
2017-09-30T13:37:39.034Z,8.30
2017-09-30T13:40:07.444Z,11.93
2017-09-30T13:42:35.037Z,9.80
2017-09-30T13:45:02.645Z,14.03
2017-09-30T13:47:31.049Z,10.70
2017-09-30T13:49:58.664Z,11.50
2017-09-30T13:52:26.260Z,9.60
2017-09-30T13:54:53.887Z,10.20
2017-09-30T13:57:22.241Z,9.97
2017-09-30T13:59:50.653Z,11.13
2017-09-30T14:02:19.040Z,9.87
2017-09-30T14:04:47.461Z,8.50
2017-09-30T14:07:15.094Z,10.17
2017-09-30T14:09:42.712Z,9.90
2017-09-30T14:12:10.816Z,11.33
2017-09-30T14:14:39.180Z,11.37
2017-09-30T14:17:06.813Z,10.73
2017-09-30T14:19:34.466Z,12.77
2017-09-30T14:22:02.065Z,10.90
2017-09-30T14:24:30.436Z,10.30
2017-09-30T14:26:58.049Z,11.13
2017-09-30T14:29:25.645Z,12.03
2017-09-30T14:31:53.276Z,12.00
2017-09-30T14:34:20.905Z,9.67
2017-09-30T14:36:49.275Z,11.40
2017-09-30T14:39:17.671Z,10.60
2017-09-30T14:41:45.276Z,9.97
2017-09-30T14:44:13.007Z,11.03
2017-09-30T14:46:40.619Z,11.30
2017-09-30T14:49:08.226Z,11.17
2017-09-30T14:51:35.838Z,11.27
2017-09-30T14:54:03.450Z,10.77
2017-09-30T14:56:31.085Z,14.80
2017-09-30T14:58:59.457Z,10.73
2017-09-30T15:01:27.976Z,12.57
2017-09-30T15:03:55.635Z,13.00
2017-09-30T15:06:23.269Z,12.50
2017-09-30T15:08:51.705Z,11.33
2017-09-30T15:11:19.304Z,10.20
2017-09-30T15:13:46.981Z,10.87
2017-09-30T15:16:14.597Z,11.33
2017-09-30T15:18:42.232Z,12.50
2017-09-30T15:21:09.869Z,13.30
2017-09-30T15:23:37.472Z,13.90
2017-09-30T15:26:05.079Z,11.20
2017-09-30T15:28:33.520Z,11.70
2017-09-30T15:31:01.143Z,13.10
2017-09-30T15:33:29.687Z,12.00
2017-09-30T15:35:58.093Z,13.47
2017-09-30T15:38:25.710Z,12.13
2017-09-30T15:40:53.318Z,12.57
2017-09-30T15:43:20.973Z,12.30
2017-09-30T15:45:48.793Z,11.40
2017-09-30T15:48:16.432Z,12.53
2017-09-30T15:50:44.086Z,12.23
2017-09-30T15:53:11.696Z,12.83
2017-09-30T15:55:40.120Z,14.33
2017-09-30T15:58:07.722Z,11.30
2017-09-30T16:00:35.334Z,12.00
2017-09-30T16:03:02.949Z,15.70
2017-09-30T16:05:30.566Z,11.70
2017-09-30T16:07:58.210Z,11.30
2017-09-30T16:10:25.843Z,12.20
2017-09-30T16:12:54.216Z,12.73
2017-09-30T16:15:22.600Z,13.07
2017-09-30T16:17:51.013Z,11.60
2017-09-30T16:20:18.644Z,12.20
2017-09-30T16:22:47.014Z,10.97
2017-09-30T16:25:14.618Z,12.10
2017-09-30T16:27:42.248Z,11.90
2017-09-30T16:30:10.707Z,11.33
2017-09-30T16:32:38.360Z,10.83
2017-09-30T16:35:05.978Z,12.43
2017-09-30T16:37:33.578Z,11.10
2017-09-30T16:40:01.215Z,14.83
2017-09-30T16:42:28.839Z,16.23
2017-09-30T16:44:56.520Z,18.80
2017-09-30T16:47:24.132Z,13.37
2017-09-30T16:49:51.749Z,12.67
2017-09-30T16:52:19.370Z,11.20
2017-09-30T16:54:47.774Z,11.30
2017-09-30T16:57:15.702Z,12.27
2017-09-30T16:59:43.328Z,12.57
2017-09-30T17:02:11.808Z,12.30
2017-09-30T17:04:39.496Z,11.30
2017-09-30T17:07:07.190Z,18.63
2017-09-30T17:09:34.841Z,13.90
2017-09-30T17:12:02.483Z,11.17
2017-09-30T17:14:30.214Z,11.40
2017-09-30T17:16:57.875Z,11.90
2017-09-30T17:19:25.485Z,16.00
2017-09-30T17:21:53.908Z,14.47
2017-09-30T17:24:21.577Z,12.30
2017-09-30T17:26:49.781Z,10.67
2017-09-30T17:29:17.435Z,12.50
2017-09-30T17:31:45.064Z,10.60
2017-09-30T17:34:12.679Z,11.60
2017-09-30T17:36:40.297Z,11.83
2017-09-30T17:39:07.917Z,10.77
2017-09-30T17:41:36.329Z,12.77
2017-09-30T17:44:05.145Z,11.53
2017-09-30T17:46:32.778Z,11.60
2017-09-30T17:49:00.440Z,10.40
2017-09-30T17:51:28.111Z,11.20
2017-09-30T17:53:55.716Z,11.60
2017-09-30T17:56:23.701Z,10.90
2017-09-30T17:58:52.097Z,10.60
2017-09-30T18:01:19.918Z,9.83
2017-09-30T18:03:47.540Z,16.87
2017-09-30T18:06:15.155Z,11.30
2017-09-30T18:08:43.119Z,13.23
2017-09-30T18:11:10.737Z,12.63
2017-09-30T18:13:38.501Z,11.73
2017-09-30T18:16:06.129Z,11.77
2017-09-30T18:18:34.530Z,12.63
2017-09-30T18:21:02.562Z,9.40
2017-09-30T18:26:04.755Z,10.30
2017-09-30T18:28:33.145Z,10.60
2017-09-30T18:31:01.518Z,10.53
2017-09-30T18:33:30.098Z,12.43
2017-09-30T18:35:58.558Z,10.33
2017-09-30T18:38:26.635Z,12.20
2017-09-30T18:40:54.334Z,11.13
2017-09-30T18:43:22.018Z,11.03
2017-09-30T18:45:49.723Z,11.33
2017-09-30T18:48:18.137Z,12.13
2017-09-30T18:50:47.004Z,10.83
2017-09-30T18:53:15.371Z,11.20
2017-09-30T18:55:42.992Z,11.73
2017-09-30T18:58:10.726Z,12.33
2017-09-30T19:00:38.354Z,12.53
2017-09-30T19:03:06.327Z,12.27
2017-09-30T19:05:33.971Z,12.20
2017-09-30T19:08:01.982Z,14.13
2017-09-30T19:10:30.387Z,15.40
2017-09-30T19:12:58.014Z,15.20
2017-09-30T19:15:26.820Z,14.83
2017-09-30T19:17:54.455Z,13.20
2017-09-30T19:20:22.987Z,14.07
2017-09-30T19:22:50.692Z,17.93
2017-09-30T19:25:18.325Z,20.13
2017-09-30T19:27:46.313Z,25.70
2017-09-30T19:30:13.918Z,16.43
2017-09-30T19:32:41.538Z,37.37
2017-09-30T19:35:09.234Z,25.03
2017-09-30T19:37:36.868Z,23.07
2017-09-30T19:40:04.977Z,13.87
2017-09-30T19:42:32.623Z,14.23
2017-09-30T19:45:01.001Z,15.67
2017-09-30T19:47:29.405Z,14.17
2017-09-30T19:49:57.128Z,13.30
2017-09-30T19:52:25.555Z,17.23
2017-09-30T19:54:53.225Z,14.33
2017-09-30T19:57:20.864Z,15.60
2017-09-30T19:59:48.563Z,14.20
2017-09-30T20:02:16.191Z,14.07
2017-09-30T20:04:43.860Z,13.13
2017-09-30T20:07:11.550Z,13.73
2017-09-30T20:09:39.191Z,14.07
2017-09-30T20:12:07.035Z,15.10
2017-09-30T20:14:35.084Z,13.37
2017-09-30T20:17:03.471Z,14.10
2017-09-30T20:19:31.886Z,19.47
2017-09-30T20:21:59.552Z,15.27
2017-09-30T20:24:27.489Z,17.80
2017-09-30T20:26:55.866Z,15.70
2017-09-30T20:29:24.277Z,15.93
2017-09-30T20:31:51.979Z,16.10
2017-09-30T20:34:19.594Z,14.53
2017-09-30T20:36:47.236Z,13.73
2017-09-30T20:39:15.668Z,14.27
2017-09-30T20:41:43.281Z,13.13
2017-09-30T20:44:10.925Z,15.27
2017-09-30T20:46:39.302Z,15.63
2017-09-30T20:49:07.682Z,11.57
2017-09-30T20:51:36.101Z,13.67
2017-09-30T20:54:03.709Z,13.57
2017-09-30T20:56:31.334Z,13.10
2017-09-30T20:58:58.963Z,15.70
2017-09-30T21:01:26.572Z,13.43
2017-09-30T21:03:54.218Z,15.60
2017-09-30T21:06:22.601Z,16.13
2017-09-30T21:08:50.277Z,13.33
2017-09-30T21:11:17.989Z,14.43
2017-09-30T21:13:45.594Z,14.97
2017-09-30T21:16:13.251Z,14.83
2017-09-30T21:18:40.845Z,14.33
2017-09-30T21:21:09.214Z,14.30
2017-09-30T21:23:36.840Z,15.70
2017-09-30T21:26:04.468Z,15.70
2017-09-30T21:28:32.405Z,16.03
2017-09-30T21:31:00.010Z,15.23
2017-09-30T21:33:27.602Z,16.20
2017-09-30T21:35:55.234Z,19.03
2017-09-30T21:38:22.834Z,15.30
2017-09-30T21:40:50.491Z,17.10
2017-09-30T21:43:18.096Z,14.83
2017-09-30T21:45:46.449Z,15.30
2017-09-30T21:48:14.076Z,13.73
2017-09-30T21:50:41.678Z,14.60
2017-09-30T21:53:10.099Z,17.07
2017-09-30T21:55:37.732Z,10.80
2017-09-30T21:58:06.101Z,10.67
2017-09-30T22:00:34.973Z,8.93
2017-09-30T22:03:02.584Z,8.40
2017-09-30T22:05:30.203Z,8.10
2017-09-30T22:07:57.813Z,7.27
2017-09-30T22:10:25.406Z,7.40
2017-09-30T22:12:53.053Z,6.90
2017-09-30T22:15:20.656Z,8.93
2017-09-30T22:17:49.035Z,6.27
2017-09-30T22:20:17.446Z,6.57
2017-09-30T22:22:45.048Z,8.17
2017-09-30T22:25:12.656Z,5.93
2017-09-30T22:27:40.386Z,5.83
